createdAt,value
2023-03-24T00:02:29.668Z,27.20
2023-03-24T00:05:22.547Z,38.40
2023-03-24T00:08:10.585Z,50.35
2023-03-24T00:11:03.591Z,53.00
2023-03-24T00:13:51.354Z,55.55
2023-03-24T00:16:42.935Z,41.35
2023-03-24T00:19:30.837Z,24.92
2023-03-24T00:22:21.566Z,24.10
2023-03-24T00:25:11.362Z,28.35
2023-03-24T00:28:03.282Z,27.88
2023-03-24T00:30:52.415Z,21.15
2023-03-24T00:33:40.781Z,24.17
2023-03-24T00:36:29.749Z,19.27
2023-03-24T00:39:20.975Z,20.25
2023-03-24T00:42:09.363Z,28.88
2023-03-24T00:44:57.069Z,26.40
2023-03-24T00:47:45.081Z,24.50
2023-03-24T00:50:33.821Z,23.17
2023-03-24T00:53:23.528Z,20.90
2023-03-24T00:56:12.013Z,18.23
2023-03-24T00:59:02.581Z,18.63
2023-03-24T01:01:50.398Z,22.48
2023-03-24T01:04:41.412Z,26.67
2023-03-24T01:07:32.819Z,26.15
2023-03-24T01:10:26.503Z,44.63
2023-03-24T01:13:14.696Z,36.95
2023-03-24T01:16:03.456Z,29.33
2023-03-24T01:18:52.885Z,22.50
2023-03-24T01:21:42.579Z,22.63
2023-03-24T01:24:31.482Z,24.65
2023-03-24T01:27:19.349Z,23.40
2023-03-24T01:30:08.244Z,25.98
2023-03-24T01:32:56.668Z,26.38
2023-03-24T01:35:44.573Z,21.77
2023-03-24T01:38:32.482Z,23.80
2023-03-24T01:41:20.330Z,24.40
2023-03-24T01:44:34.616Z,28.85
2023-03-24T01:47:22.391Z,57.80
2023-03-24T01:50:10.276Z,82.60
2023-03-24T01:52:58.876Z,26.95
2023-03-24T01:55:48.536Z,22.80
2023-03-24T01:58:46.152Z,16.45
2023-03-24T02:01:46.205Z,18.60
2023-03-24T02:05:01.923Z,19.42
2023-03-24T02:08:16.965Z,18.65
2023-03-24T02:11:05.005Z,17.00
2023-03-24T02:14:02.264Z,8.27
2023-03-24T02:16:58.785Z,11.02
2023-03-24T02:20:26.060Z,16.00
2023-03-24T02:23:22.522Z,9.90
2023-03-24T02:26:25.240Z,15.45
2023-03-24T02:29:40.918Z,12.10
2023-03-24T02:32:58.462Z,17.98
2023-03-24T02:36:23.777Z,16.13
2023-03-24T02:39:49.007Z,16.67
2023-03-24T02:42:57.325Z,10.45
2023-03-24T02:45:50.942Z,14.32
2023-03-24T02:49:05.229Z,11.80
2023-03-24T02:52:12.977Z,10.75
2023-03-24T02:55:12.740Z,7.72
2023-03-24T02:59:08.364Z,9.13
2023-03-24T03:02:08.664Z,10.65
2023-03-24T03:05:14.100Z,9.15
2023-03-24T03:08:05.090Z,9.63
2023-03-24T03:10:54.899Z,8.02
2023-03-24T03:13:54.558Z,7.32
2023-03-24T03:17:00.219Z,6.68
2023-03-24T03:19:55.797Z,10.45
2023-03-24T03:23:12.023Z,10.65
2023-03-24T03:26:04.858Z,8.90
2023-03-24T03:28:58.350Z,12.52
2023-03-24T03:31:59.932Z,8.93
2023-03-24T03:35:19.609Z,12.05
2023-03-24T03:38:37.375Z,12.05
2023-03-24T03:41:25.249Z,13.25
2023-03-24T03:44:12.973Z,9.63
2023-03-24T03:47:01.343Z,10.43
2023-03-24T03:49:59.331Z,11.13
2023-03-24T03:52:47.057Z,13.30
2023-03-24T03:55:35.761Z,11.82
2023-03-24T03:58:24.852Z,11.55
2023-03-24T04:01:20.362Z,12.43
2023-03-24T04:05:07.932Z,11.73
2023-03-24T04:08:31.805Z,11.95
2023-03-24T04:11:46.523Z,11.88
2023-03-24T04:15:12.113Z,12.18
2023-03-24T04:18:45.859Z,11.73
2023-03-24T04:21:48.889Z,12.30
2023-03-24T04:24:57.402Z,15.48
2023-03-24T04:28:03.808Z,20.63
2023-03-24T04:31:30.335Z,18.55
2023-03-24T04:34:26.348Z,26.92
2023-03-24T04:37:19.816Z,25.90
2023-03-24T04:40:24.509Z,29.58
2023-03-24T04:43:20.484Z,37.63
2023-03-24T04:46:09.675Z,33.92
2023-03-24T04:49:12.142Z,29.27
2023-03-24T04:52:00.777Z,17.65
2023-03-24T04:54:55.468Z,19.35
2023-03-24T04:57:43.590Z,13.95
2023-03-24T05:00:33.796Z,26.42
2023-03-24T05:03:21.735Z,36.20
2023-03-24T05:06:13.202Z,33.65
2023-03-24T05:09:01.006Z,39.80
2023-03-24T05:11:51.333Z,22.65
2023-03-24T05:14:40.122Z,19.77
2023-03-24T05:17:28.347Z,22.02
2023-03-24T05:20:16.838Z,31.73
2023-03-24T05:23:09.371Z,26.85
2023-03-24T05:25:57.210Z,15.57
2023-03-24T05:28:46.822Z,17.00
2023-03-24T05:31:34.666Z,12.35
2023-03-24T05:34:35.021Z,21.67
2023-03-24T05:37:34.602Z,15.15
2023-03-24T05:40:23.841Z,19.20
2023-03-24T05:43:37.947Z,20.50
2023-03-24T05:46:34.333Z,27.30
2023-03-24T05:49:24.619Z,20.35
2023-03-24T05:52:16.532Z,24.35
2023-03-24T05:55:07.828Z,22.52
2023-03-24T05:57:56.926Z,20.92
2023-03-24T06:01:10.727Z,20.77
2023-03-24T06:03:59.996Z,20.80
2023-03-24T06:06:47.824Z,24.00
2023-03-24T06:12:34.449Z,18.60
2023-03-24T06:15:28.190Z,24.15
2023-03-24T06:18:24.448Z,23.67
2023-03-24T06:21:12.257Z,27.17
2023-03-24T06:24:03.471Z,26.77
2023-03-24T06:26:52.760Z,25.23
2023-03-24T06:29:44.249Z,24.67
2023-03-24T06:32:33.877Z,26.77
2023-03-24T06:35:21.665Z,25.38
2023-03-24T06:38:19.086Z,19.65
2023-03-24T06:41:07.248Z,27.52
2023-03-24T06:43:55.660Z,18.20
2023-03-24T06:46:43.797Z,21.42
2023-03-24T06:49:32.393Z,21.15
2023-03-24T06:52:20.136Z,13.93
2023-03-24T06:55:08.579Z,14.13
2023-03-24T06:57:56.446Z,9.95
2023-03-24T07:01:17.402Z,9.48
2023-03-24T07:04:17.392Z,10.32
2023-03-24T07:08:06.615Z,11.02
2023-03-24T07:10:54.225Z,9.27
2023-03-24T07:13:42.176Z,7.38
2023-03-24T07:16:34.337Z,9.52
2023-03-24T07:19:41.940Z,10.95
2023-03-24T07:22:49.875Z,10.00
2023-03-24T07:25:54.799Z,11.55
2023-03-24T07:29:02.717Z,9.40
2023-03-24T07:31:59.036Z,8.55
2023-03-24T07:34:48.513Z,7.50
2023-03-24T07:37:37.890Z,13.07
2023-03-24T07:40:25.952Z,8.77
2023-03-24T07:43:13.722Z,8.65
2023-03-24T07:46:17.364Z,9.55
2023-03-24T07:49:18.111Z,11.82
2023-03-24T07:52:14.348Z,12.65
2023-03-24T07:55:07.213Z,11.60
2023-03-24T07:58:18.776Z,7.45
2023-03-24T08:01:21.833Z,8.10
2023-03-24T08:04:14.410Z,7.23
2023-03-24T08:07:20.278Z,11.32
2023-03-24T08:10:09.369Z,8.18
2023-03-24T08:13:00.793Z,6.85
2023-03-24T08:15:49.228Z,7.55
2023-03-24T08:18:36.949Z,13.43
2023-03-24T08:21:25.968Z,8.43
2023-03-24T08:24:13.723Z,6.07
2023-03-24T08:27:06.592Z,10.05
2023-03-24T08:29:54.415Z,6.30
2023-03-24T08:32:47.817Z,8.25
2023-03-24T08:35:39.394Z,8.57
2023-03-24T08:38:31.956Z,9.07
2023-03-24T08:41:19.911Z,6.97
2023-03-24T08:44:07.875Z,4.97
2023-03-24T08:46:55.596Z,5.78
2023-03-24T08:49:43.341Z,10.27
2023-03-24T08:52:30.982Z,11.05
2023-03-24T08:55:20.000Z,11.43
2023-03-24T08:58:08.638Z,13.95
2023-03-24T09:00:56.418Z,14.30
2023-03-24T09:03:44.990Z,13.05
2023-03-24T09:06:33.053Z,19.33
2023-03-24T09:09:20.932Z,14.55
2023-03-24T09:12:10.999Z,14.70
2023-03-24T09:14:59.007Z,11.18
2023-03-24T09:17:48.193Z,11.38
2023-03-24T09:20:36.346Z,11.57
2023-03-24T09:23:24.293Z,13.80
2023-03-24T09:26:12.055Z,11.93
2023-03-24T09:29:00.268Z,12.90
2023-03-24T09:31:47.960Z,6.50
2023-03-24T09:34:38.504Z,6.30
2023-03-24T09:37:30.011Z,7.60
2023-03-24T09:40:29.341Z,5.95
2023-03-24T09:43:38.967Z,7.95
2023-03-24T09:46:37.543Z,7.53
2023-03-24T09:49:30.750Z,5.13
2023-03-24T09:52:25.290Z,6.57
2023-03-24T09:55:19.783Z,4.13
2023-03-24T09:58:09.352Z,14.90
2023-03-24T10:00:57.675Z,12.43
2023-03-24T10:03:47.195Z,6.60
2023-03-24T10:06:42.425Z,4.10
2023-03-24T10:09:33.934Z,4.85
2023-03-24T10:12:50.684Z,4.20
2023-03-24T10:15:47.768Z,3.88
2023-03-24T10:18:44.219Z,5.45
2023-03-24T10:21:36.583Z,5.00
2023-03-24T10:24:44.859Z,5.15
2023-03-24T10:27:42.674Z,2.63
2023-03-24T10:30:34.475Z,3.22
2023-03-24T10:33:22.079Z,4.43
2023-03-24T10:36:21.298Z,4.57
2023-03-24T10:39:19.949Z,15.02
2023-03-24T10:42:18.786Z,6.82
2023-03-24T10:45:12.002Z,2.50
2023-03-24T10:48:01.939Z,3.50
2023-03-24T10:50:49.845Z,2.20
2023-03-24T10:53:37.799Z,3.33
2023-03-24T10:56:40.697Z,2.92
2023-03-24T10:59:57.981Z,2.28
2023-03-24T11:03:07.571Z,2.10
2023-03-24T11:06:01.575Z,2.75
2023-03-24T11:09:11.936Z,2.72
2023-03-24T11:12:04.400Z,2.45
2023-03-24T11:14:54.408Z,1.92
2023-03-24T11:17:42.733Z,4.20
2023-03-24T11:20:36.736Z,3.95
2023-03-24T11:23:32.061Z,0.93
2023-03-24T11:26:23.505Z,2.03
2023-03-24T11:29:18.648Z,2.08
2023-03-24T11:32:16.811Z,3.42
2023-03-24T11:35:17.988Z,2.67
2023-03-24T11:38:08.204Z,5.10
2023-03-24T11:41:05.566Z,1.80
2023-03-24T11:44:17.639Z,1.55
2023-03-24T11:50:19.141Z,2.33
2023-03-24T11:53:20.197Z,2.83
2023-03-24T11:56:37.888Z,10.87
2023-03-24T11:59:44.119Z,2.35
2023-03-24T12:02:43.758Z,2.42
2023-03-24T12:05:42.534Z,1.95
2023-03-24T12:08:47.339Z,2.47
2023-03-24T12:11:53.624Z,1.30
2023-03-24T12:14:48.748Z,1.83
2023-03-24T12:17:42.728Z,1.35
2023-03-24T12:21:04.906Z,6.75
2023-03-24T12:24:31.437Z,1.67
2023-03-24T12:27:52.681Z,1.73
2023-03-24T12:31:17.391Z,2.83
2023-03-24T12:34:42.782Z,4.22
2023-03-24T12:37:39.348Z,4.63
2023-03-24T12:40:47.770Z,3.58
2023-03-24T12:43:53.491Z,2.20
2023-03-24T12:47:00.995Z,1.77
2023-03-24T12:50:00.505Z,4.43
2023-03-24T12:53:06.787Z,2.22
2023-03-24T12:56:14.474Z,0.77
2023-03-24T12:59:04.290Z,2.40
2023-03-24T13:02:13.284Z,0.32
2023-03-24T13:05:07.761Z,1.75
2023-03-24T13:07:59.425Z,2.67
2023-03-24T13:10:48.851Z,0.95
2023-03-24T13:13:44.801Z,1.35
2023-03-24T13:16:37.115Z,3.33
2023-03-24T13:19:26.288Z,2.58
2023-03-24T13:22:18.705Z,3.83
2023-03-24T13:25:22.806Z,1.95
2023-03-24T13:28:18.625Z,1.02
2023-03-24T13:31:09.792Z,1.08
2023-03-24T13:34:01.057Z,0.95
2023-03-24T13:37:00.410Z,5.03
2023-03-24T13:39:58.355Z,2.15
2023-03-24T13:43:07.176Z,2.78
2023-03-24T13:46:07.815Z,0.52
2023-03-24T13:48:57.442Z,0.60
2023-03-24T13:51:47.030Z,0.43
2023-03-24T13:54:37.974Z,1.15
2023-03-24T13:57:26.857Z,2.60
2023-03-24T14:00:21.578Z,2.97
2023-03-24T14:03:31.653Z,2.85
2023-03-24T14:06:45.556Z,3.13
2023-03-24T14:09:33.591Z,3.25
2023-03-24T14:12:21.566Z,2.25
2023-03-24T14:15:14.318Z,1.20
2023-03-24T14:18:25.325Z,2.92
2023-03-24T14:21:13.580Z,3.05
2023-03-24T14:24:04.366Z,0.70
2023-03-24T14:26:52.951Z,1.00
2023-03-24T14:29:52.680Z,0.88
2023-03-24T14:32:50.286Z,0.65
2023-03-24T14:36:06.705Z,0.60
2023-03-24T14:38:54.543Z,0.38
2023-03-24T14:41:44.531Z,0.60
2023-03-24T14:44:56.848Z,2.25
2023-03-24T14:47:45.541Z,1.10
2023-03-24T14:50:34.764Z,0.50
2023-03-24T14:53:23.660Z,6.10
2023-03-24T14:56:16.698Z,6.93
2023-03-24T14:59:17.565Z,5.90
2023-03-24T15:02:33.462Z,6.32
2023-03-24T15:05:32.662Z,2.45
2023-03-24T15:08:22.659Z,3.40
2023-03-24T15:11:11.841Z,4.13
2023-03-24T15:14:02.597Z,3.75
2023-03-24T15:17:07.430Z,13.55
2023-03-24T15:19:55.754Z,7.78
2023-03-24T15:22:43.414Z,14.00
2023-03-24T15:25:31.069Z,4.78
2023-03-24T15:28:24.830Z,2.95
2023-03-24T15:31:14.757Z,1.70
2023-03-24T15:34:35.973Z,3.15
2023-03-24T15:37:48.480Z,1.15
2023-03-24T15:40:39.657Z,1.25
2023-03-24T15:43:27.612Z,7.25
2023-03-24T15:46:30.526Z,2.72
2023-03-24T15:49:23.931Z,5.35
2023-03-24T15:52:23.510Z,4.50
2023-03-24T15:55:36.924Z,3.88
2023-03-24T15:58:28.636Z,9.50
2023-03-24T16:01:20.977Z,6.47
2023-03-24T16:04:15.990Z,6.82
2023-03-24T16:07:05.469Z,3.58
2023-03-24T16:10:05.227Z,4.22
2023-03-24T16:12:53.720Z,5.80
2023-03-24T16:15:56.842Z,8.40
2023-03-24T16:18:51.478Z,6.53
2023-03-24T16:21:39.087Z,6.60
2023-03-24T16:24:29.956Z,11.68
2023-03-24T16:27:17.892Z,6.10
2023-03-24T16:30:38.077Z,17.80
2023-03-24T16:33:33.018Z,26.55
2023-03-24T16:36:22.338Z,25.17
2023-03-24T16:39:21.830Z,58.05
2023-03-24T16:42:12.875Z,55.30
2023-03-24T16:45:00.533Z,51.50
2023-03-24T16:47:48.452Z,56.60
2023-03-24T16:50:45.615Z,80.15
2023-03-24T16:53:33.424Z,56.88
2023-03-24T16:56:23.168Z,37.85
2023-03-24T16:59:12.707Z,52.55
2023-03-24T17:02:06.208Z,58.13
2023-03-24T17:04:54.334Z,80.22
2023-03-24T17:07:43.023Z,281.42
2023-03-24T17:10:31.228Z,365.02
2023-03-24T17:13:21.995Z,201.10
2023-03-24T17:16:10.974Z,763.75
2023-03-24T17:18:58.758Z,429.83
2023-03-24T17:22:03.398Z,265.13
2023-03-24T17:24:57.767Z,221.60
2023-03-24T17:27:46.402Z,101.13
2023-03-24T17:30:34.195Z,95.88
2023-03-24T17:33:21.805Z,78.40
2023-03-24T17:36:17.230Z,61.47
2023-03-24T17:39:05.671Z,63.47
2023-03-24T17:41:57.754Z,69.82
2023-03-24T17:44:47.554Z,74.30
2023-03-24T17:47:35.682Z,120.22
2023-03-24T17:50:23.592Z,114.40
2023-03-24T17:53:13.903Z,106.80
2023-03-24T17:56:08.439Z,93.82
2023-03-24T17:58:58.898Z,94.25
2023-03-24T18:01:47.551Z,90.40
2023-03-24T18:04:35.271Z,102.40
2023-03-24T18:07:23.413Z,78.55
2023-03-24T18:10:11.356Z,70.28
2023-03-24T18:13:02.575Z,56.75
2023-03-24T18:15:50.412Z,67.13
2023-03-24T18:18:39.336Z,70.85
2023-03-24T18:21:26.998Z,74.68
2023-03-24T18:24:14.858Z,71.88
2023-03-24T18:27:04.003Z,63.90
2023-03-24T18:29:51.715Z,70.00
2023-03-24T18:32:40.500Z,62.53
2023-03-24T18:35:28.572Z,69.82
2023-03-24T18:38:22.236Z,72.75
2023-03-24T18:41:13.101Z,72.47
2023-03-24T18:44:01.025Z,68.97
2023-03-24T18:46:51.850Z,58.92
2023-03-24T18:49:42.575Z,68.00
2023-03-24T18:52:33.314Z,76.20
2023-03-24T18:55:22.071Z,68.78
2023-03-24T18:58:15.625Z,106.03
2023-03-24T19:01:12.463Z,119.15
2023-03-24T19:04:00.393Z,124.85
2023-03-24T19:06:50.551Z,114.15
2023-03-24T19:09:38.489Z,113.90
2023-03-24T19:12:26.427Z,112.88
2023-03-24T19:15:17.243Z,131.10
2023-03-24T19:18:05.107Z,101.43
2023-03-24T19:20:59.299Z,107.95
2023-03-24T19:23:47.286Z,99.07
2023-03-24T19:26:35.151Z,96.63
2023-03-24T19:29:22.820Z,88.85
2023-03-24T19:32:10.568Z,92.38
2023-03-24T19:34:58.319Z,87.07
2023-03-24T19:37:49.503Z,84.50
2023-03-24T19:40:37.297Z,75.77
2023-03-24T19:43:25.538Z,57.53
2023-03-24T19:46:13.255Z,65.03
2023-03-24T19:49:01.272Z,60.83
2023-03-24T19:51:51.157Z,54.55
2023-03-24T19:54:38.983Z,63.30
2023-03-24T19:57:27.543Z,80.45
2023-03-24T20:00:15.957Z,75.45
2023-03-24T20:03:03.725Z,66.32
2023-03-24T20:05:53.762Z,68.30
2023-03-24T20:08:41.603Z,77.03
2023-03-24T20:11:29.300Z,78.00
2023-03-24T20:14:18.640Z,84.88
2023-03-24T20:17:06.324Z,73.00
2023-03-24T20:19:54.497Z,73.68
2023-03-24T20:22:45.873Z,67.45
2023-03-24T20:25:33.572Z,60.28
2023-03-24T20:28:21.609Z,57.80
2023-03-24T20:31:11.156Z,59.20
2023-03-24T20:33:59.452Z,54.97
2023-03-24T20:36:47.095Z,55.45
2023-03-24T20:39:35.094Z,50.22
2023-03-24T20:42:25.411Z,54.20
2023-03-24T20:45:13.121Z,57.08
2023-03-24T20:48:00.784Z,44.45
2023-03-24T20:50:48.697Z,49.40
2023-03-24T20:53:36.923Z,60.45
2023-03-24T20:56:25.303Z,54.58
2023-03-24T20:59:14.007Z,65.38
2023-03-24T21:02:02.539Z,74.13
2023-03-24T21:04:50.162Z,64.50
2023-03-24T21:07:38.547Z,66.68
2023-03-24T21:10:26.244Z,62.60
2023-03-24T21:13:16.790Z,56.72
2023-03-24T21:16:09.774Z,62.53
2023-03-24T21:18:59.178Z,59.05
2023-03-24T21:21:49.720Z,55.30
2023-03-24T21:24:37.884Z,63.28
2023-03-24T21:27:36.655Z,55.05
2023-03-24T21:30:26.428Z,58.58
2023-03-24T21:33:17.076Z,55.47
2023-03-24T21:36:05.191Z,60.55
2023-03-24T21:38:54.335Z,50.00
2023-03-24T21:41:42.931Z,58.42
2023-03-24T21:44:30.662Z,49.25
2023-03-24T21:47:27.357Z,40.95
2023-03-24T21:50:19.310Z,43.35
2023-03-24T21:53:15.408Z,39.22
2023-03-24T21:56:06.117Z,35.20
2023-03-24T21:59:00.209Z,39.33
2023-03-24T22:01:47.952Z,40.78
2023-03-24T22:04:38.579Z,35.15
2023-03-24T22:07:26.198Z,45.25
2023-03-24T22:10:16.996Z,37.45
2023-03-24T22:13:05.224Z,26.17
2023-03-24T22:15:56.079Z,26.90
2023-03-24T22:18:43.775Z,31.60
2023-03-24T22:21:32.478Z,38.53
2023-03-24T22:24:20.079Z,37.83
2023-03-24T22:27:08.194Z,46.47
2023-03-24T22:29:55.973Z,42.53
2023-03-24T22:32:43.791Z,36.90
2023-03-24T22:35:31.696Z,35.30
2023-03-24T22:38:19.381Z,45.17
2023-03-24T22:41:10.981Z,34.20
2023-03-24T22:43:58.702Z,45.97
2023-03-24T22:46:46.431Z,35.30
2023-03-24T22:49:34.499Z,36.00
2023-03-24T22:52:22.116Z,34.72
2023-03-24T22:55:10.642Z,27.17
2023-03-24T22:58:00.824Z,32.72
2023-03-24T23:01:04.580Z,31.05
2023-03-24T23:03:55.228Z,22.67
2023-03-24T23:06:46.434Z,23.98
2023-03-24T23:09:34.481Z,33.53
2023-03-24T23:12:22.681Z,20.13
2023-03-24T23:15:14.337Z,27.33
2023-03-24T23:18:02.139Z,29.95
2023-03-24T23:20:50.254Z,36.17
2023-03-24T23:23:40.076Z,31.10
2023-03-24T23:26:30.233Z,30.73
2023-03-24T23:29:18.172Z,26.02
2023-03-24T23:32:06.872Z,32.63
2023-03-24T23:34:54.912Z,34.28
2023-03-24T23:37:42.963Z,33.30
2023-03-24T23:40:30.745Z,30.13
2023-03-24T23:43:18.368Z,30.80
2023-03-24T23:46:06.572Z,19.30
2023-03-24T23:48:54.469Z,14.85
2023-03-24T23:51:43.624Z,16.70
2023-03-24T23:54:32.458Z,16.10
2023-03-24T23:57:20.256Z,17.67
